createdAt,value
2019-03-31T00:00:24.811Z,60.55
2019-03-31T00:01:24.818Z,59.84
2019-03-31T00:02:24.791Z,60.35
2019-03-31T00:03:24.790Z,60.14
2019-03-31T00:04:24.773Z,60.25
2019-03-31T00:05:24.779Z,60.35
2019-03-31T00:06:24.757Z,60.05
2019-03-31T00:07:24.734Z,59.97
2019-03-31T00:08:24.727Z,60.14
2019-03-31T00:09:24.714Z,59.36
2019-03-31T00:10:24.745Z,60.17
2019-03-31T00:11:24.693Z,60.58
2019-03-31T00:12:24.686Z,60.58
2019-03-31T00:13:24.674Z,59.77
2019-03-31T00:14:24.663Z,60.07
2019-03-31T00:15:24.669Z,60.17
2019-03-31T00:16:24.701Z,59.77
2019-03-31T00:17:24.630Z,60.78
2019-03-31T00:18:24.629Z,60.07
2019-03-31T00:19:24.619Z,60.17
2019-03-31T00:20:24.616Z,59.89
2019-03-31T00:21:24.584Z,60.07
2019-03-31T00:22:24.614Z,60.10
2019-03-31T00:23:24.563Z,60.71
2019-03-31T00:24:24.561Z,60.41
2019-03-31T00:25:24.561Z,60.38
2019-03-31T00:26:24.538Z,60.30
2019-03-31T00:27:24.521Z,60.30
2019-03-31T00:28:24.514Z,60.82
2019-03-31T00:29:24.501Z,60.48
2019-03-31T00:30:24.527Z,60.71
2019-03-31T00:31:24.493Z,60.51
2019-03-31T00:32:24.466Z,60.28
2019-03-31T00:33:24.456Z,60.38
2019-03-31T00:34:24.452Z,60.51
2019-03-31T00:35:24.436Z,60.71
2019-03-31T00:36:24.445Z,60.51
2019-03-31T00:37:24.421Z,60.41
2019-03-31T00:38:24.400Z,60.82
2019-03-31T00:39:24.397Z,60.61
2019-03-31T00:40:24.408Z,60.21
2019-03-31T00:41:24.400Z,60.00
2019-03-31T00:42:24.361Z,59.89
2019-03-31T00:43:24.354Z,60.10
2019-03-31T00:44:24.338Z,60.13
2019-03-31T00:45:24.329Z,60.21
2019-03-31T00:46:24.344Z,60.10
2019-03-31T00:47:24.311Z,60.03
2019-03-31T00:48:24.298Z,60.71
2019-03-31T00:49:24.292Z,60.85
2019-03-31T00:50:24.299Z,61.25
2019-03-31T00:51:24.313Z,61.15
2019-03-31T00:52:24.257Z,60.94
2019-03-31T00:53:24.294Z,61.05
2019-03-31T00:54:27.575Z,61.15
2019-03-31T00:55:24.222Z,60.94
2019-03-31T00:56:24.221Z,60.53
2019-03-31T00:57:24.233Z,61.05
2019-03-31T00:58:24.190Z,61.15
2019-03-31T00:59:24.200Z,61.25
2019-03-31T01:00:24.180Z,61.46
2019-03-31T01:01:35.732Z,61.18
2019-03-31T01:02:25.167Z,61.79
2019-03-31T01:03:24.134Z,61.87
2019-03-31T01:04:24.131Z,61.69
2019-03-31T01:05:24.115Z,62.20
2019-03-31T01:06:24.115Z,62.40
2019-03-31T01:07:24.112Z,62.10
2019-03-31T01:08:24.083Z,62.20
2019-03-31T01:09:24.072Z,62.51
2019-03-31T01:10:24.063Z,62.51
2019-03-31T01:11:24.049Z,62.84
2019-03-31T01:12:24.111Z,63.53
2019-03-31T01:13:24.028Z,63.43
2019-03-31T01:14:24.024Z,64.14
2019-03-31T01:15:24.034Z,63.93
2019-03-31T01:16:23.995Z,64.24
2019-03-31T01:17:24.005Z,64.55
2019-03-31T01:18:31.521Z,64.89
2019-03-31T01:19:31.499Z,65.09
2019-03-31T01:20:32.514Z,65.26
2019-03-31T01:21:23.943Z,65.60
2019-03-31T01:22:32.948Z,65.19
2019-03-31T01:23:31.509Z,65.09
2019-03-31T01:24:23.968Z,64.48
2019-03-31T01:25:31.445Z,64.48
2019-03-31T01:26:31.414Z,64.37
2019-03-31T01:27:32.588Z,64.61
2019-03-31T01:28:31.444Z,64.37
2019-03-31T01:29:23.863Z,64.68
2019-03-31T01:30:23.842Z,65.22
2019-03-31T01:31:23.832Z,65.12
2019-03-31T01:32:23.839Z,65.66
2019-03-31T01:33:23.809Z,65.84
2019-03-31T01:34:23.802Z,65.66
2019-03-31T01:35:23.810Z,65.36
2019-03-31T01:36:23.778Z,66.38
2019-03-31T01:37:23.830Z,66.28
2019-03-31T01:38:23.774Z,65.87
2019-03-31T01:39:23.841Z,65.87
2019-03-31T01:40:23.771Z,65.87
2019-03-31T01:41:23.724Z,66.20
2019-03-31T01:42:23.765Z,65.87
2019-03-31T01:43:23.704Z,65.66
2019-03-31T01:44:23.692Z,65.28
2019-03-31T01:45:23.699Z,65.59
2019-03-31T01:46:23.715Z,65.69
2019-03-31T01:47:23.690Z,65.28
2019-03-31T01:48:23.650Z,65.59
2019-03-31T01:49:23.661Z,65.80
2019-03-31T01:50:23.630Z,66.51
2019-03-31T01:51:23.616Z,66.41
2019-03-31T01:52:23.641Z,66.20
2019-03-31T01:53:23.592Z,66.20
2019-03-31T01:54:33.411Z,66.03
2019-03-31T01:55:31.125Z,66.00
2019-03-31T01:56:31.107Z,66.82
2019-03-31T01:57:33.291Z,66.75
2019-03-31T01:58:23.540Z,66.34
2019-03-31T01:59:23.526Z,66.00
2019-03-31T02:00:23.552Z,66.13
2019-03-31T02:01:23.508Z,66.24
2019-03-31T02:02:23.519Z,66.64
2019-03-31T02:03:23.493Z,66.61
2019-03-31T02:04:23.473Z,65.90
2019-03-31T02:05:23.472Z,65.93
2019-03-31T02:06:23.456Z,66.34
2019-03-31T02:07:23.456Z,66.10
2019-03-31T02:08:23.461Z,65.93
2019-03-31T02:09:23.428Z,65.21
2019-03-31T02:10:23.407Z,66.10
2019-03-31T02:11:23.416Z,66.03
2019-03-31T02:12:23.395Z,65.42
2019-03-31T02:13:23.394Z,65.62
2019-03-31T02:14:23.367Z,65.62
2019-03-31T02:15:23.355Z,65.62
2019-03-31T02:16:23.352Z,66.24
2019-03-31T02:17:23.334Z,66.03
2019-03-31T02:18:23.340Z,65.62
2019-03-31T02:19:23.332Z,65.72
2019-03-31T02:20:23.302Z,66.03
2019-03-31T02:21:23.292Z,66.44
2019-03-31T02:22:23.277Z,65.45
2019-03-31T02:23:23.301Z,65.34
2019-03-31T02:24:23.257Z,65.65
2019-03-31T02:25:23.276Z,66.03
2019-03-31T02:26:23.235Z,65.83
2019-03-31T02:27:23.253Z,65.75
2019-03-31T02:28:23.301Z,66.16
2019-03-31T02:29:23.214Z,65.96
2019-03-31T02:30:23.218Z,65.65
2019-03-31T02:31:23.188Z,65.96
2019-03-31T02:32:24.866Z,66.47
2019-03-31T02:33:23.220Z,65.96
2019-03-31T02:34:23.151Z,65.86
2019-03-31T02:35:23.162Z,66.06
2019-03-31T02:36:23.130Z,65.24
2019-03-31T02:37:23.144Z,65.65
2019-03-31T02:38:23.110Z,65.96
2019-03-31T02:39:23.211Z,65.93
2019-03-31T02:40:23.085Z,65.93
2019-03-31T02:41:23.077Z,66.16
2019-03-31T02:42:23.100Z,65.72
2019-03-31T02:43:23.061Z,65.86
2019-03-31T02:44:23.051Z,67.60
2019-03-31T02:45:23.078Z,67.60
2019-03-31T02:46:23.028Z,67.90
2019-03-31T02:47:23.043Z,68.38
2019-03-31T02:48:23.000Z,68.62
2019-03-31T02:49:22.998Z,68.83
2019-03-31T02:50:23.001Z,69.13
2019-03-31T02:51:22.965Z,68.62
2019-03-31T02:52:22.961Z,68.62
2019-03-31T02:53:22.944Z,68.49
2019-03-31T02:54:22.937Z,68.21
2019-03-31T02:55:22.989Z,67.60
2019-03-31T02:56:22.909Z,67.49
2019-03-31T02:57:22.897Z,67.40
2019-03-31T02:58:22.890Z,67.40
2019-03-31T02:59:22.884Z,67.80
2019-03-31T03:00:22.891Z,67.80
2019-03-31T03:01:22.893Z,67.70
2019-03-31T03:02:40.238Z,67.80
2019-03-31T03:03:23.947Z,67.40
2019-03-31T03:04:22.825Z,67.40
2019-03-31T03:05:22.818Z,67.46
2019-03-31T03:06:22.853Z,66.64
2019-03-31T03:07:22.812Z,66.75
2019-03-31T03:08:30.329Z,66.27
2019-03-31T03:09:30.333Z,66.47
2019-03-31T03:10:22.764Z,66.34
2019-03-31T03:11:22.776Z,66.47
2019-03-31T03:12:22.739Z,65.34
2019-03-31T03:13:22.767Z,65.93
2019-03-31T03:14:22.716Z,65.55
2019-03-31T03:15:22.709Z,65.72
2019-03-31T03:16:22.731Z,65.62
2019-03-31T03:17:22.684Z,65.75
2019-03-31T03:18:22.674Z,65.93
2019-03-31T03:19:22.667Z,65.72
2019-03-31T03:20:22.657Z,65.55
2019-03-31T03:21:31.385Z,65.72
2019-03-31T03:22:22.647Z,65.42
2019-03-31T03:23:22.623Z,65.96
2019-03-31T03:24:22.626Z,65.75
2019-03-31T03:25:22.599Z,65.72
2019-03-31T03:26:22.586Z,65.75
2019-03-31T03:27:22.612Z,66.54
2019-03-31T03:28:22.582Z,66.06
2019-03-31T03:29:22.559Z,66.47
2019-03-31T03:30:22.703Z,66.78
2019-03-31T03:31:22.632Z,66.67
2019-03-31T03:32:22.593Z,66.27
2019-03-31T03:33:22.528Z,66.06
2019-03-31T03:34:22.513Z,67.08
2019-03-31T03:35:22.514Z,66.67
2019-03-31T03:36:22.504Z,66.98
2019-03-31T03:37:22.469Z,66.98
2019-03-31T03:38:22.546Z,66.37
2019-03-31T03:39:22.448Z,66.67
2019-03-31T03:40:22.447Z,67.29
2019-03-31T03:41:22.436Z,66.67
2019-03-31T03:42:22.455Z,66.27
2019-03-31T03:43:22.435Z,66.27
2019-03-31T03:44:22.391Z,65.86
2019-03-31T03:45:22.408Z,66.16
2019-03-31T03:46:22.378Z,65.65
2019-03-31T03:47:22.380Z,65.34
2019-03-31T03:48:22.371Z,66.27
2019-03-31T03:49:22.352Z,65.75
2019-03-31T03:50:22.328Z,65.65
2019-03-31T03:51:22.343Z,65.83
2019-03-31T03:52:22.353Z,65.45
2019-03-31T03:53:22.335Z,66.16
2019-03-31T03:54:22.291Z,66.78
2019-03-31T03:55:22.291Z,67.05
2019-03-31T03:56:22.266Z,68.41
2019-03-31T03:57:22.271Z,69.54
2019-03-31T03:58:22.258Z,70.47
2019-03-31T03:59:22.248Z,70.87
2019-03-31T04:00:22.226Z,70.98
2019-03-31T04:01:22.245Z,71.28
2019-03-31T04:02:22.222Z,71.69
2019-03-31T04:03:30.487Z,72.00
2019-03-31T04:04:23.184Z,72.44
2019-03-31T04:05:22.168Z,72.34
2019-03-31T04:06:22.163Z,72.44
2019-03-31T04:07:22.163Z,72.86
2019-03-31T04:08:22.136Z,72.44
2019-03-31T04:09:22.137Z,72.38
2019-03-31T04:10:22.126Z,72.75
2019-03-31T04:11:22.261Z,72.68
2019-03-31T04:12:22.134Z,72.78
2019-03-31T04:13:22.300Z,71.97
2019-03-31T04:14:22.077Z,71.66
2019-03-31T04:15:22.077Z,71.66
2019-03-31T04:16:22.058Z,71.86
2019-03-31T04:17:22.090Z,71.97
2019-03-31T04:18:22.032Z,71.66
2019-03-31T04:19:22.018Z,71.76
2019-03-31T04:20:22.013Z,71.45
2019-03-31T04:21:22.016Z,71.35
2019-03-31T04:22:22.012Z,70.94
2019-03-31T04:23:21.982Z,71.25
2019-03-31T04:24:21.991Z,70.94
2019-03-31T04:25:21.954Z,70.64
2019-03-31T04:26:21.944Z,70.02
2019-03-31T04:27:21.980Z,70.73
2019-03-31T04:28:21.932Z,70.64
2019-03-31T04:29:21.917Z,70.32
2019-03-31T04:30:21.900Z,70.53
2019-03-31T04:31:21.887Z,70.84
2019-03-31T04:32:21.900Z,71.25
2019-03-31T04:33:21.881Z,71.35
2019-03-31T04:34:21.858Z,71.35
2019-03-31T04:35:21.857Z,71.25
2019-03-31T04:36:21.836Z,71.76
2019-03-31T04:37:21.839Z,71.76
2019-03-31T04:38:21.815Z,70.84
2019-03-31T04:39:21.814Z,71.97
2019-03-31T04:40:21.797Z,72.38
2019-03-31T04:41:21.781Z,72.78
2019-03-31T04:42:21.809Z,72.89
2019-03-31T04:43:21.757Z,72.48
2019-03-31T04:44:21.746Z,72.38
2019-03-31T04:45:21.741Z,72.27
2019-03-31T04:46:21.739Z,72.38
2019-03-31T04:47:21.738Z,72.17
2019-03-31T04:48:21.705Z,72.48
2019-03-31T04:49:21.702Z,72.17
2019-03-31T04:50:21.687Z,71.56
2019-03-31T04:51:21.746Z,71.66
2019-03-31T04:52:21.676Z,71.04
2019-03-31T04:53:21.652Z,70.84
2019-03-31T04:54:21.639Z,71.25
2019-03-31T04:55:21.689Z,71.56
2019-03-31T04:56:21.625Z,71.56
2019-03-31T04:57:21.629Z,71.45
2019-03-31T04:58:21.629Z,71.66
2019-03-31T04:59:21.593Z,71.76
2019-03-31T05:00:21.604Z,71.76
2019-03-31T05:01:21.591Z,71.66
2019-03-31T05:02:21.712Z,71.97
2019-03-31T05:03:21.579Z,72.07
2019-03-31T05:04:21.588Z,71.93
2019-03-31T05:05:21.522Z,72.27
2019-03-31T05:06:21.510Z,72.48
2019-03-31T05:07:21.525Z,72.65
2019-03-31T05:08:21.514Z,72.27
2019-03-31T05:09:21.540Z,72.24
2019-03-31T05:10:21.474Z,72.14
2019-03-31T05:11:21.458Z,71.97
2019-03-31T05:12:21.473Z,72.07
2019-03-31T05:13:21.442Z,72.07
2019-03-31T05:14:21.447Z,72.17
2019-03-31T05:15:21.418Z,72.34
2019-03-31T05:16:21.546Z,72.03
2019-03-31T05:17:21.414Z,71.45
2019-03-31T05:18:21.384Z,71.73
2019-03-31T05:19:21.373Z,71.86
2019-03-31T05:20:21.361Z,71.97
2019-03-31T05:21:21.350Z,72.17
2019-03-31T05:22:21.358Z,72.27
2019-03-31T05:23:21.396Z,72.03
2019-03-31T05:24:21.318Z,72.44
2019-03-31T05:25:21.413Z,72.44
2019-03-31T05:26:21.303Z,72.78
2019-03-31T05:27:29.918Z,72.58
2019-03-31T05:28:29.850Z,72.89
2019-03-31T05:29:30.102Z,72.58
2019-03-31T05:30:29.823Z,72.48
2019-03-31T05:31:28.810Z,73.02
2019-03-31T05:32:21.249Z,72.82
2019-03-31T05:33:21.217Z,73.02
2019-03-31T05:34:21.214Z,73.10
2019-03-31T05:35:21.200Z,73.19
2019-03-31T05:36:21.192Z,73.30
2019-03-31T05:37:21.228Z,73.95
2019-03-31T05:38:21.166Z,73.50
2019-03-31T05:39:21.155Z,73.85
2019-03-31T05:40:21.154Z,73.40
2019-03-31T05:41:21.137Z,73.10
2019-03-31T05:42:21.224Z,73.44
2019-03-31T05:43:21.150Z,73.33
2019-03-31T05:44:21.110Z,73.33
2019-03-31T05:45:21.093Z,73.30
2019-03-31T05:46:21.139Z,73.13
2019-03-31T05:47:21.112Z,72.82
2019-03-31T05:48:21.069Z,72.72
2019-03-31T05:49:21.091Z,73.02
2019-03-31T05:50:21.069Z,72.31
2019-03-31T05:51:21.042Z,72.72
2019-03-31T05:52:21.098Z,72.51
2019-03-31T05:53:21.013Z,72.31
2019-03-31T05:54:20.993Z,72.51
2019-03-31T05:55:20.991Z,72.20
2019-03-31T05:56:20.970Z,72.41
2019-03-31T05:57:20.963Z,72.51
2019-03-31T05:58:20.975Z,72.51
2019-03-31T05:59:20.939Z,72.41
2019-03-31T06:00:20.929Z,72.27
2019-03-31T06:01:20.928Z,72.48
2019-03-31T06:02:20.907Z,72.89
2019-03-31T06:03:20.936Z,73.50
2019-03-31T06:04:32.582Z,73.50
2019-03-31T06:05:21.888Z,73.50
2019-03-31T06:06:20.904Z,73.50
2019-03-31T06:07:20.851Z,73.61
2019-03-31T06:08:20.887Z,73.50
2019-03-31T06:09:20.845Z,73.40
2019-03-31T06:10:20.822Z,73.81
2019-03-31T06:11:20.818Z,73.91
2019-03-31T06:12:20.805Z,74.12
2019-03-31T06:13:20.819Z,74.19
2019-03-31T06:14:20.780Z,74.39
2019-03-31T06:15:20.786Z,73.88
2019-03-31T06:16:20.762Z,74.19
2019-03-31T06:17:20.768Z,73.78
2019-03-31T06:18:20.752Z,73.78
2019-03-31T06:19:20.749Z,73.78
2019-03-31T06:20:20.719Z,73.36
2019-03-31T06:21:20.723Z,73.47
2019-03-31T06:22:20.697Z,73.78
2019-03-31T06:23:20.702Z,74.08
2019-03-31T06:24:20.733Z,73.57
2019-03-31T06:25:20.680Z,72.86
2019-03-31T06:26:20.651Z,72.72
2019-03-31T06:27:20.650Z,72.31
2019-03-31T06:28:20.668Z,71.80
2019-03-31T06:29:20.643Z,71.39
2019-03-31T06:30:20.735Z,70.67
2019-03-31T06:31:20.594Z,70.77
2019-03-31T06:32:20.585Z,70.47
2019-03-31T06:33:20.572Z,69.85
2019-03-31T06:34:20.566Z,69.95
2019-03-31T06:35:20.608Z,70.47
2019-03-31T06:36:20.609Z,69.65
2019-03-31T06:37:20.531Z,69.51
2019-03-31T06:38:20.530Z,70.03
2019-03-31T06:39:20.576Z,70.43
2019-03-31T06:40:20.552Z,71.04
2019-03-31T06:41:20.496Z,71.56
2019-03-31T06:42:20.473Z,72.38
2019-03-31T06:43:20.509Z,72.28
2019-03-31T06:44:20.467Z,72.07
2019-03-31T06:45:20.464Z,71.86
2019-03-31T06:46:20.437Z,72.17
2019-03-31T06:47:20.428Z,72.17
2019-03-31T06:48:20.409Z,71.86
2019-03-31T06:49:20.408Z,71.77
2019-03-31T06:50:30.115Z,71.97
2019-03-31T06:51:20.375Z,71.90
2019-03-31T06:52:20.368Z,72.31
2019-03-31T06:53:20.361Z,71.86
2019-03-31T06:54:20.345Z,71.45
2019-03-31T06:55:20.356Z,71.77
2019-03-31T06:56:20.327Z,71.56
2019-03-31T06:57:20.322Z,71.45
2019-03-31T06:58:20.305Z,70.84
2019-03-31T06:59:20.312Z,71.01
2019-03-31T07:00:20.316Z,70.81
2019-03-31T07:01:20.268Z,70.84
2019-03-31T07:02:20.317Z,70.50
2019-03-31T07:03:20.309Z,70.40
2019-03-31T07:04:20.242Z,70.29
2019-03-31T07:05:20.299Z,70.37
2019-03-31T07:06:20.257Z,70.16
2019-03-31T07:07:23.588Z,70.06
2019-03-31T07:08:20.198Z,69.75
2019-03-31T07:09:20.184Z,69.34
2019-03-31T07:10:20.173Z,68.70
2019-03-31T07:11:20.183Z,68.39
2019-03-31T07:12:20.165Z,67.57
2019-03-31T07:13:20.147Z,67.78
2019-03-31T07:14:20.127Z,67.37
2019-03-31T07:15:20.117Z,66.93
2019-03-31T07:16:20.110Z,66.96
2019-03-31T07:17:20.115Z,67.07
2019-03-31T07:18:20.126Z,67.34
2019-03-31T07:19:20.087Z,66.52
2019-03-31T07:20:20.088Z,66.62
2019-03-31T07:21:20.050Z,67.24
2019-03-31T07:22:20.061Z,66.39
2019-03-31T07:23:20.075Z,66.59
2019-03-31T07:24:20.024Z,66.59
2019-03-31T07:25:20.064Z,66.39
2019-03-31T07:26:20.029Z,67.00
2019-03-31T07:27:19.990Z,66.39
2019-03-31T07:28:20.006Z,66.36
2019-03-31T07:29:19.990Z,66.46
2019-03-31T07:30:19.965Z,66.56
2019-03-31T07:31:19.981Z,65.95
2019-03-31T07:32:19.943Z,66.36
2019-03-31T07:33:19.938Z,65.92
2019-03-31T07:34:19.910Z,66.22
2019-03-31T07:35:19.914Z,65.92
2019-03-31T07:36:19.904Z,66.33
2019-03-31T07:37:19.941Z,66.33
2019-03-31T07:38:19.961Z,65.81
2019-03-31T07:39:20.188Z,65.51
2019-03-31T07:40:20.129Z,65.17
2019-03-31T07:41:20.201Z,64.56
2019-03-31T07:42:19.860Z,65.28
2019-03-31T07:43:19.998Z,64.97
2019-03-31T07:44:19.807Z,65.17
2019-03-31T07:45:19.799Z,65.37
2019-03-31T07:46:19.821Z,64.66
2019-03-31T07:47:19.773Z,64.97
2019-03-31T07:48:19.817Z,65.48
2019-03-31T07:49:19.752Z,64.94
2019-03-31T07:50:19.739Z,66.06
2019-03-31T07:51:27.288Z,65.14
2019-03-31T07:52:28.279Z,64.87
2019-03-31T07:53:19.727Z,65.25
2019-03-31T07:54:19.700Z,65.25
2019-03-31T07:55:19.683Z,65.95
2019-03-31T07:56:19.676Z,65.04
2019-03-31T07:57:19.663Z,64.50
2019-03-31T07:58:19.730Z,64.90
2019-03-31T07:59:19.651Z,64.50
2019-03-31T08:00:19.636Z,63.68
2019-03-31T08:01:19.619Z,63.96
2019-03-31T08:02:19.616Z,63.76
2019-03-31T08:03:19.627Z,63.35
2019-03-31T08:04:19.591Z,63.35
2019-03-31T08:05:32.371Z,63.24
2019-03-31T08:06:20.563Z,63.56
2019-03-31T08:07:19.552Z,63.04
2019-03-31T08:08:19.613Z,62.92
2019-03-31T08:09:19.540Z,62.20
2019-03-31T08:10:19.528Z,62.20
2019-03-31T08:11:19.511Z,62.30
2019-03-31T08:12:19.500Z,62.20
2019-03-31T08:13:19.598Z,61.69
2019-03-31T08:14:19.481Z,61.99
2019-03-31T08:15:19.538Z,61.99
2019-03-31T08:16:19.461Z,62.61
2019-03-31T08:17:19.455Z,62.10
2019-03-31T08:18:19.482Z,61.99
2019-03-31T08:19:20.883Z,62.10
2019-03-31T08:20:19.417Z,61.76
2019-03-31T08:21:19.399Z,61.56
2019-03-31T08:22:19.394Z,62.17
2019-03-31T08:23:19.404Z,61.97
2019-03-31T08:24:19.367Z,62.37
2019-03-31T08:25:19.372Z,62.40
2019-03-31T08:26:19.378Z,62.17
2019-03-31T08:27:19.347Z,62.48
2019-03-31T08:28:19.411Z,62.17
2019-03-31T08:29:19.334Z,62.55
2019-03-31T08:30:19.303Z,61.94
2019-03-31T08:31:19.292Z,62.04
2019-03-31T08:32:19.298Z,62.14
2019-03-31T08:33:19.334Z,62.04
2019-03-31T08:34:19.352Z,62.35
2019-03-31T08:35:19.248Z,61.63
2019-03-31T08:36:19.242Z,61.81
2019-03-31T08:37:19.236Z,61.91
2019-03-31T08:38:19.243Z,60.97
2019-03-31T08:39:19.208Z,61.30
2019-03-31T08:40:19.197Z,61.68
2019-03-31T08:41:19.182Z,61.47
2019-03-31T08:42:19.172Z,61.57
2019-03-31T08:43:19.235Z,61.07
2019-03-31T08:44:19.198Z,60.86
2019-03-31T08:45:19.145Z,60.56
2019-03-31T08:46:19.137Z,60.13
2019-03-31T08:47:19.216Z,60.63
2019-03-31T08:48:19.124Z,61.34
2019-03-31T08:49:19.106Z,60.40
2019-03-31T08:50:19.090Z,60.20
2019-03-31T08:51:19.090Z,59.99
2019-03-31T08:52:19.067Z,59.99
2019-03-31T08:53:19.081Z,60.17
2019-03-31T08:54:19.043Z,59.77
2019-03-31T08:55:19.063Z,59.66
2019-03-31T08:56:19.021Z,59.46
2019-03-31T08:57:19.011Z,58.42
2019-03-31T08:58:19.022Z,58.22
2019-03-31T08:59:19.016Z,59.94
2019-03-31T09:00:18.978Z,58.42
2019-03-31T09:01:18.968Z,58.92
2019-03-31T09:02:18.964Z,58.69
2019-03-31T09:03:19.070Z,58.90
2019-03-31T09:04:18.980Z,57.88
2019-03-31T09:05:18.927Z,58.29
2019-03-31T09:06:18.979Z,57.78
2019-03-31T09:07:18.913Z,58.49
2019-03-31T09:08:18.906Z,59.38
2019-03-31T09:09:18.913Z,57.96
2019-03-31T09:10:18.876Z,57.96
2019-03-31T09:11:18.862Z,57.53
2019-03-31T09:12:18.865Z,57.93
2019-03-31T09:13:18.881Z,57.73
2019-03-31T09:14:18.826Z,57.62
2019-03-31T09:15:26.412Z,57.62
2019-03-31T09:16:18.802Z,57.62
2019-03-31T09:17:18.790Z,57.50
2019-03-31T09:18:18.785Z,57.60
2019-03-31T09:19:18.785Z,55.98
2019-03-31T09:20:18.770Z,55.75
2019-03-31T09:21:18.774Z,57.67
2019-03-31T09:22:18.737Z,55.11
2019-03-31T09:23:18.731Z,55.32
2019-03-31T09:24:18.737Z,55.82
2019-03-31T09:25:18.706Z,55.62
2019-03-31T09:26:18.726Z,54.99
2019-03-31T09:27:18.716Z,54.99
2019-03-31T09:28:18.675Z,53.96
2019-03-31T09:29:18.732Z,53.55
2019-03-31T09:30:18.708Z,53.75
2019-03-31T09:31:18.640Z,53.63
2019-03-31T09:32:18.648Z,52.09
2019-03-31T09:33:18.635Z,51.66
2019-03-31T09:34:18.629Z,52.04
2019-03-31T09:35:18.599Z,51.73
2019-03-31T09:36:18.587Z,51.10
2019-03-31T09:37:18.576Z,50.93
2019-03-31T09:38:18.596Z,50.12
2019-03-31T09:39:18.595Z,50.40
2019-03-31T09:40:18.554Z,49.47
2019-03-31T09:41:18.537Z,50.40
2019-03-31T09:42:18.520Z,50.02
2019-03-31T09:43:18.521Z,47.79
2019-03-31T09:44:18.523Z,46.09
2019-03-31T09:45:18.495Z,44.95
2019-03-31T09:46:18.525Z,44.30
2019-03-31T09:47:18.466Z,43.16
2019-03-31T09:48:18.458Z,41.91
2019-03-31T09:49:18.487Z,42.41
2019-03-31T09:50:18.450Z,40.81
2019-03-31T09:51:18.424Z,43.30
2019-03-31T09:52:18.430Z,44.32
2019-03-31T09:53:18.402Z,44.10
2019-03-31T09:54:18.419Z,43.90
2019-03-31T09:55:18.399Z,43.16
2019-03-31T09:56:25.935Z,41.24
2019-03-31T09:57:26.951Z,43.48
2019-03-31T09:58:25.907Z,42.25
2019-03-31T09:59:18.355Z,41.43
2019-03-31T10:00:25.875Z,41.96
2019-03-31T10:01:26.877Z,44.22
2019-03-31T10:02:18.305Z,44.89
2019-03-31T10:03:18.295Z,45.01
2019-03-31T10:04:18.335Z,46.34
2019-03-31T10:05:18.273Z,46.86
2019-03-31T10:06:29.693Z,47.08
2019-03-31T10:07:19.255Z,47.31
2019-03-31T10:08:21.815Z,49.15
2019-03-31T10:09:18.253Z,48.36
2019-03-31T10:10:18.275Z,48.58
2019-03-31T10:11:18.216Z,48.56
2019-03-31T10:12:18.279Z,48.49
2019-03-31T10:13:18.194Z,49.01
2019-03-31T10:14:18.210Z,50.62
2019-03-31T10:15:18.183Z,49.94
2019-03-31T10:16:18.267Z,50.02
2019-03-31T10:17:18.148Z,49.41
2019-03-31T10:18:18.473Z,48.91
2019-03-31T10:19:18.181Z,50.62
2019-03-31T10:20:18.145Z,50.73
2019-03-31T10:21:18.112Z,50.87
2019-03-31T10:22:18.094Z,50.16
2019-03-31T10:23:18.116Z,51.18
2019-03-31T10:24:18.101Z,51.20
2019-03-31T10:25:18.061Z,52.03
2019-03-31T10:26:31.113Z,52.84
2019-03-31T10:27:19.046Z,52.56
2019-03-31T10:28:18.027Z,52.76
2019-03-31T10:29:18.059Z,53.38
2019-03-31T10:30:18.011Z,52.76
2019-03-31T10:31:18.003Z,53.19
2019-03-31T10:32:18.021Z,54.41
2019-03-31T10:33:18.006Z,54.11
2019-03-31T10:34:18.041Z,53.93
2019-03-31T10:35:17.994Z,53.63
2019-03-31T10:36:17.985Z,53.96
2019-03-31T10:37:18.043Z,55.47
2019-03-31T10:38:17.925Z,55.37
2019-03-31T10:39:17.930Z,54.33
2019-03-31T10:40:17.900Z,55.88
2019-03-31T10:41:17.949Z,54.97
2019-03-31T10:42:17.878Z,55.70
2019-03-31T10:43:17.866Z,55.10
2019-03-31T10:44:17.882Z,55.60
2019-03-31T10:45:17.866Z,56.21
2019-03-31T10:46:17.836Z,56.34
2019-03-31T10:47:17.837Z,56.21
2019-03-31T10:48:20.960Z,56.10
2019-03-31T10:49:17.824Z,56.10
2019-03-31T10:50:17.788Z,55.70
2019-03-31T10:51:17.782Z,55.32
2019-03-31T10:52:17.789Z,56.36
2019-03-31T10:53:17.763Z,56.16
2019-03-31T10:54:17.767Z,56.26
2019-03-31T10:55:17.797Z,56.16
2019-03-31T10:56:17.726Z,56.16
2019-03-31T10:57:17.722Z,56.29
2019-03-31T10:58:17.710Z,56.90
2019-03-31T10:59:17.745Z,57.40
2019-03-31T11:00:17.692Z,57.10
2019-03-31T11:01:17.674Z,57.40
2019-03-31T11:02:17.663Z,57.33
2019-03-31T11:03:17.660Z,57.60
2019-03-31T11:04:17.668Z,56.70
2019-03-31T11:05:17.637Z,57.30
2019-03-31T11:06:17.678Z,57.10
2019-03-31T11:07:17.615Z,56.70
2019-03-31T11:08:17.609Z,55.96
2019-03-31T11:09:17.611Z,55.96
2019-03-31T11:10:17.758Z,56.16
2019-03-31T11:11:17.570Z,56.21
2019-03-31T11:12:17.557Z,57.33
2019-03-31T11:13:17.556Z,57.93
2019-03-31T11:14:17.558Z,58.85
2019-03-31T11:15:17.606Z,57.84
2019-03-31T11:16:17.559Z,57.97
2019-03-31T11:17:17.508Z,58.09
2019-03-31T11:18:17.506Z,59.75
2019-03-31T11:19:17.538Z,59.84
2019-03-31T11:20:17.482Z,59.14
2019-03-31T11:21:17.467Z,57.92
2019-03-31T11:22:17.452Z,58.63
2019-03-31T11:23:17.452Z,58.63
2019-03-31T11:24:17.448Z,58.63
2019-03-31T11:25:22.074Z,58.96
2019-03-31T11:26:18.431Z,58.53
2019-03-31T11:27:17.413Z,59.62
2019-03-31T11:28:17.387Z,57.73
2019-03-31T11:29:17.403Z,57.60
2019-03-31T11:30:17.387Z,56.16
2019-03-31T11:31:18.057Z,55.96
2019-03-31T11:32:17.352Z,55.45
2019-03-31T11:33:17.354Z,56.13
2019-03-31T11:34:19.651Z,55.10
2019-03-31T11:35:17.317Z,54.76
2019-03-31T11:36:17.303Z,53.40
2019-03-31T11:37:17.325Z,52.46
2019-03-31T11:38:17.287Z,52.26
2019-03-31T11:39:17.291Z,54.38
2019-03-31T11:40:17.290Z,52.74
2019-03-31T11:41:17.274Z,51.25
2019-03-31T11:42:17.263Z,51.45
2019-03-31T11:43:25.777Z,51.45
2019-03-31T11:44:17.228Z,51.86
2019-03-31T11:45:17.238Z,51.98
2019-03-31T11:46:17.224Z,52.21
2019-03-31T11:47:17.177Z,52.74
2019-03-31T11:48:17.180Z,53.34
2019-03-31T11:49:17.216Z,52.94
2019-03-31T11:50:17.156Z,53.14
2019-03-31T11:51:17.136Z,53.58
2019-03-31T11:52:17.130Z,54.51
2019-03-31T11:53:17.120Z,54.64
2019-03-31T11:54:17.159Z,54.77
2019-03-31T11:55:17.112Z,55.98
2019-03-31T11:56:17.095Z,56.01
2019-03-31T11:57:17.663Z,55.37
2019-03-31T11:58:17.077Z,55.27
2019-03-31T11:59:17.061Z,55.37
2019-03-31T12:00:17.063Z,55.68
2019-03-31T12:01:17.102Z,55.91
2019-03-31T12:02:27.134Z,55.91
2019-03-31T12:03:18.005Z,55.25
2019-03-31T12:04:16.993Z,54.74
2019-03-31T12:05:17.020Z,56.46
2019-03-31T12:06:17.038Z,55.02
2019-03-31T12:07:27.176Z,53.67
2019-03-31T12:08:17.979Z,53.45
2019-03-31T12:09:17.399Z,53.32
2019-03-31T12:10:19.775Z,51.88
2019-03-31T12:11:16.966Z,51.17
2019-03-31T12:12:16.919Z,51.48
2019-03-31T12:13:16.920Z,51.62
2019-03-31T12:14:16.885Z,53.37
2019-03-31T12:15:16.897Z,53.67
2019-03-31T12:16:16.877Z,54.49
2019-03-31T12:17:16.884Z,53.34
2019-03-31T12:18:16.849Z,53.05
2019-03-31T12:19:16.856Z,53.60
2019-03-31T12:20:16.836Z,54.08
2019-03-31T12:21:16.845Z,51.96
2019-03-31T12:22:16.801Z,53.88
2019-03-31T12:23:16.925Z,51.65
2019-03-31T12:24:16.792Z,52.67
2019-03-31T12:26:45.179Z,51.78
2019-03-31T12:27:45.153Z,51.78
2019-03-31T12:28:45.139Z,51.07
2019-03-31T12:29:54.760Z,50.64
2019-03-31T12:30:45.117Z,50.44
2019-03-31T12:31:45.107Z,50.06
2019-03-31T12:32:45.110Z,50.77
2019-03-31T12:33:45.088Z,49.76
2019-03-31T12:34:45.094Z,49.53
2019-03-31T12:35:45.060Z,50.44
2019-03-31T12:36:45.103Z,48.93
2019-03-31T12:37:45.042Z,50.11
2019-03-31T12:38:45.154Z,51.45
2019-03-31T12:39:45.045Z,51.55
2019-03-31T12:40:45.027Z,52.48
2019-03-31T12:41:44.998Z,52.06
2019-03-31T12:42:44.987Z,51.95
2019-03-31T12:43:44.977Z,51.75
2019-03-31T12:44:44.986Z,53.98
2019-03-31T12:45:44.956Z,51.75
2019-03-31T12:46:44.944Z,51.12
2019-03-31T12:47:44.932Z,50.29
2019-03-31T12:48:44.920Z,51.42
2019-03-31T12:49:44.936Z,50.38
2019-03-31T12:50:44.900Z,50.31
2019-03-31T12:51:44.912Z,50.57
2019-03-31T12:52:47.468Z,50.87
2019-03-31T12:53:44.865Z,50.49